createdAt,value
2022-11-07T00:00:26.248Z,92.53
2022-11-07T00:05:26.180Z,92.53
2022-11-07T00:10:26.124Z,92.63
2022-11-07T00:15:26.046Z,92.83
2022-11-07T00:20:25.989Z,93.04
2022-11-07T00:25:25.945Z,93.25
2022-11-07T00:30:25.867Z,93.25
2022-11-07T00:35:25.789Z,93.45
2022-11-07T00:40:25.713Z,93.55
2022-11-07T00:45:25.651Z,93.66
2022-11-07T00:50:25.585Z,94.07
2022-11-07T00:55:25.530Z,94.37
2022-11-07T01:00:25.473Z,94.78
2022-11-07T01:05:44.188Z,94.89
2022-11-07T01:10:36.564Z,94.89
2022-11-07T01:15:36.519Z,95.44
2022-11-07T01:20:36.448Z,95.44
2022-11-07T01:25:36.389Z,95.86
2022-11-07T01:30:36.301Z,95.75
2022-11-07T01:35:36.267Z,96.41
2022-11-07T01:40:36.189Z,96.92
2022-11-07T01:45:36.113Z,96.72
2022-11-07T01:50:36.057Z,97.13
2022-11-07T01:55:36.039Z,97.54
2022-11-07T02:00:35.917Z,97.33
2022-11-07T02:05:35.880Z,97.03
2022-11-07T02:10:35.797Z,97.13
2022-11-07T02:15:35.721Z,97.33
2022-11-07T02:20:35.666Z,97.03
2022-11-07T02:25:35.609Z,97.23
2022-11-07T02:30:35.518Z,97.29
2022-11-07T02:35:35.481Z,96.98
2022-11-07T02:40:35.397Z,96.88
2022-11-07T02:45:35.349Z,96.98
2022-11-07T02:50:35.252Z,96.53
2022-11-07T02:55:35.212Z,96.22
2022-11-07T03:00:35.185Z,96.22
2022-11-07T03:05:36.018Z,96.22
2022-11-07T03:10:35.005Z,96.28
2022-11-07T03:15:34.943Z,96.48
2022-11-07T03:20:34.865Z,96.38
2022-11-07T03:25:34.820Z,96.48
2022-11-07T03:30:34.745Z,96.58
2022-11-07T03:35:34.679Z,96.69
2022-11-07T03:40:34.606Z,96.33
2022-11-07T03:45:34.546Z,96.33
2022-11-07T03:50:34.470Z,95.98
2022-11-07T03:55:34.410Z,96.19
2022-11-07T04:00:34.352Z,96.08
2022-11-07T04:05:34.279Z,95.98
2022-11-07T04:10:34.214Z,95.88
2022-11-07T04:15:34.144Z,95.98
2022-11-07T04:20:34.063Z,96.19
2022-11-07T04:25:34.002Z,96.49
2022-11-07T04:30:33.948Z,96.29
2022-11-07T04:35:33.853Z,96.13
2022-11-07T04:40:33.822Z,96.95
2022-11-07T04:45:33.757Z,97.15
2022-11-07T04:50:33.677Z,96.84
2022-11-07T04:55:33.637Z,96.95
2022-11-07T05:00:33.548Z,96.64
2022-11-07T05:05:33.521Z,97.15
2022-11-07T05:10:33.428Z,96.95
2022-11-07T05:15:47.884Z,96.44
2022-11-07T05:20:40.281Z,96.29
2022-11-07T05:25:40.223Z,96.08
2022-11-07T05:30:40.160Z,95.67
2022-11-07T05:35:40.080Z,95.26
2022-11-07T05:40:40.017Z,95.57
2022-11-07T05:45:39.961Z,95.47
2022-11-07T05:50:39.888Z,95.37
2022-11-07T05:55:39.839Z,95.37
2022-11-07T06:00:39.818Z,94.85
2022-11-07T06:05:39.668Z,94.92
2022-11-07T06:10:39.649Z,94.81
2022-11-07T06:15:39.559Z,94.71
2022-11-07T06:20:39.512Z,94.71
2022-11-07T06:25:39.449Z,94.20
2022-11-07T06:30:39.353Z,93.99
2022-11-07T06:35:39.294Z,94.40
2022-11-07T06:40:39.225Z,94.20
2022-11-07T06:45:39.149Z,93.85
2022-11-07T06:50:39.085Z,93.74
2022-11-07T06:55:39.017Z,94.15
2022-11-07T07:00:39.003Z,93.19
2022-11-07T07:05:38.878Z,92.88
2022-11-07T07:10:38.845Z,92.84
2022-11-07T07:15:50.437Z,92.54
2022-11-07T07:20:39.691Z,92.64
2022-11-07T07:25:38.629Z,92.84
2022-11-07T07:30:38.561Z,92.23
2022-11-07T07:35:38.506Z,91.78
2022-11-07T07:40:38.443Z,91.98
2022-11-07T07:45:38.368Z,91.78
2022-11-07T07:50:38.290Z,91.57
2022-11-07T07:55:38.224Z,91.47
2022-11-07T08:00:38.270Z,90.71
2022-11-07T08:05:38.086Z,90.81
2022-11-07T08:10:42.784Z,91.02
2022-11-07T08:15:38.961Z,89.90
2022-11-07T08:20:37.942Z,89.75
2022-11-07T08:25:37.841Z,89.55
2022-11-07T08:30:37.769Z,88.93
2022-11-07T08:35:42.267Z,88.49
2022-11-07T08:40:38.633Z,88.59
2022-11-07T08:45:37.575Z,88.28
2022-11-07T08:50:37.514Z,88.18
2022-11-07T08:55:37.435Z,88.28
2022-11-07T09:00:37.576Z,88.18
2022-11-07T09:05:37.295Z,88.69
2022-11-07T09:10:37.248Z,88.49
2022-11-07T09:15:37.177Z,88.55
2022-11-07T09:20:37.117Z,88.45
2022-11-07T09:25:37.038Z,87.38
2022-11-07T09:30:36.975Z,87.69
2022-11-07T09:35:36.918Z,87.24
2022-11-07T09:40:36.836Z,86.43
2022-11-07T09:45:36.770Z,86.19
2022-11-07T09:50:36.777Z,85.53
2022-11-07T09:55:36.637Z,85.13
2022-11-07T10:00:36.631Z,86.08
2022-11-07T10:05:36.508Z,85.74
2022-11-07T10:10:36.469Z,86.04
2022-11-07T10:15:36.375Z,86.59
2022-11-07T10:20:36.327Z,87.71
2022-11-07T10:25:36.254Z,87.04
2022-11-07T10:30:36.175Z,87.20
2022-11-07T10:35:36.118Z,87.00
2022-11-07T10:40:36.072Z,86.90
2022-11-07T10:45:35.985Z,86.65
2022-11-07T10:50:35.936Z,86.65
2022-11-07T10:55:35.857Z,85.84
2022-11-07T11:00:35.849Z,85.90
2022-11-07T11:05:35.709Z,85.60
2022-11-07T11:10:35.645Z,84.95
2022-11-07T11:15:36.057Z,84.13
2022-11-07T11:20:35.507Z,84.23
2022-11-07T11:25:35.446Z,83.73
2022-11-07T11:30:35.373Z,83.48
2022-11-07T11:35:40.404Z,83.62
2022-11-07T11:40:36.247Z,83.48
2022-11-07T11:45:35.177Z,83.62
2022-11-07T11:50:35.101Z,83.22
2022-11-07T11:55:35.057Z,83.42
2022-11-07T12:00:34.985Z,82.98
2022-11-07T12:05:34.909Z,82.33
2022-11-07T12:10:34.856Z,82.43
2022-11-07T12:15:34.782Z,82.87
2022-11-07T12:20:34.711Z,83.79
2022-11-07T12:25:34.644Z,83.28
2022-11-07T12:30:34.587Z,83.83
2022-11-07T12:35:34.526Z,84.03
2022-11-07T12:40:34.446Z,84.23
2022-11-07T12:45:34.377Z,84.84
2022-11-07T12:50:34.323Z,84.74
2022-11-07T12:55:34.251Z,84.54
2022-11-07T13:00:34.183Z,83.99
2022-11-07T13:05:34.138Z,84.30
2022-11-07T13:10:34.032Z,84.40
2022-11-07T13:15:53.757Z,83.79
2022-11-07T13:20:34.926Z,84.05
2022-11-07T13:25:33.936Z,83.59
2022-11-07T13:30:33.817Z,83.85
2022-11-07T13:35:33.718Z,82.59
2022-11-07T13:40:33.660Z,82.70
2022-11-07T13:45:33.615Z,83.14
2022-11-07T13:50:33.530Z,83.00
2022-11-07T13:55:33.447Z,82.39
2022-11-07T14:00:33.445Z,82.90
2022-11-07T14:05:33.336Z,83.04
2022-11-07T14:10:33.248Z,83.65
2022-11-07T14:15:33.192Z,83.85
2022-11-07T14:20:33.136Z,83.85
2022-11-07T14:25:33.065Z,84.36
2022-11-07T14:30:33.016Z,83.54
2022-11-07T14:35:32.924Z,83.34
2022-11-07T14:40:32.889Z,83.24
2022-11-07T14:46:05.991Z,83.14
2022-11-07T14:50:33.733Z,83.59
2022-11-07T14:55:32.676Z,84.20
2022-11-07T15:00:32.599Z,84.80
2022-11-07T15:05:32.578Z,84.74
2022-11-07T15:10:32.500Z,84.74
2022-11-07T15:15:32.512Z,85.66
2022-11-07T15:20:32.330Z,85.90
2022-11-07T15:25:32.268Z,86.31
2022-11-07T15:30:32.191Z,86.21
2022-11-07T15:35:43.992Z,86.51
2022-11-07T15:40:33.055Z,86.82
2022-11-07T15:45:31.984Z,87.02
2022-11-07T15:50:31.927Z,87.16
2022-11-07T15:55:31.858Z,87.16
2022-11-07T16:00:31.798Z,86.96
2022-11-07T16:05:31.745Z,87.16
2022-11-07T16:10:31.682Z,87.26
2022-11-07T16:15:31.595Z,87.37
2022-11-07T16:20:31.518Z,86.86
2022-11-07T16:25:31.472Z,86.25
2022-11-07T16:30:31.422Z,86.35
2022-11-07T16:35:31.318Z,86.35
2022-11-07T16:40:31.273Z,85.74
2022-11-07T16:45:31.180Z,86.55
2022-11-07T16:50:31.132Z,86.76
2022-11-07T16:55:31.071Z,87.41
2022-11-07T17:00:30.999Z,88.12
2022-11-07T17:05:30.928Z,88.53
2022-11-07T17:10:30.885Z,88.53
2022-11-07T17:15:30.787Z,88.83
2022-11-07T17:25:31.658Z,88.93
2022-11-07T17:30:30.609Z,88.73
2022-11-07T17:35:32.454Z,88.73
2022-11-07T17:40:30.454Z,89.24
2022-11-07T17:45:30.376Z,89.79
2022-11-07T17:50:30.332Z,89.99
2022-11-07T17:55:30.281Z,90.09
2022-11-07T18:00:30.193Z,90.70
2022-11-07T18:05:33.099Z,91.26
2022-11-07T18:10:30.088Z,91.66
2022-11-07T18:15:29.973Z,91.87
2022-11-07T18:20:29.929Z,91.77
2022-11-07T18:25:29.862Z,91.87
2022-11-07T18:30:29.791Z,91.81
2022-11-07T18:35:29.739Z,91.81
2022-11-07T18:40:29.668Z,92.01
2022-11-07T18:45:29.598Z,91.91
2022-11-07T18:50:29.568Z,92.36
2022-11-07T18:55:30.026Z,92.46
2022-11-07T19:00:29.428Z,92.57
2022-11-07T19:05:29.355Z,92.77
2022-11-07T19:10:29.420Z,92.87
2022-11-07T19:15:29.549Z,93.18
2022-11-07T19:20:29.234Z,93.07
2022-11-07T19:25:29.054Z,93.59
2022-11-07T19:30:29.016Z,93.69
2022-11-07T19:35:28.944Z,93.79
2022-11-07T19:40:28.877Z,93.59
2022-11-07T19:45:28.816Z,93.89
2022-11-07T19:50:28.748Z,94.24
2022-11-07T19:55:28.664Z,94.45
2022-11-07T20:00:28.693Z,94.55
2022-11-07T20:05:28.575Z,94.65
2022-11-07T20:10:28.487Z,94.75
2022-11-07T20:15:28.412Z,94.59
2022-11-07T20:20:28.340Z,95.00
2022-11-07T20:25:28.286Z,95.25
2022-11-07T20:30:28.215Z,95.56
2022-11-07T20:35:28.134Z,95.86
2022-11-07T20:40:29.379Z,96.11
2022-11-07T20:45:28.024Z,96.31
2022-11-07T20:50:27.971Z,96.51
2022-11-07T20:55:27.899Z,96.87
2022-11-07T21:00:27.883Z,96.87
2022-11-07T21:05:27.744Z,96.77
2022-11-07T21:10:27.731Z,96.97
2022-11-07T21:15:27.611Z,96.87
2022-11-07T21:20:27.551Z,96.77
2022-11-07T21:25:27.493Z,97.12
2022-11-07T21:30:28.365Z,97.83
2022-11-07T21:35:32.413Z,98.30
2022-11-07T21:40:28.274Z,98.20
2022-11-07T21:45:27.229Z,97.85
2022-11-07T21:55:28.091Z,97.33
2022-11-07T22:00:29.441Z,96.83
2022-11-07T22:05:27.970Z,96.58
2022-11-07T22:10:26.915Z,96.31
2022-11-07T22:15:26.830Z,96.51
2022-11-07T22:20:26.723Z,96.92
2022-11-07T22:25:26.687Z,97.03
2022-11-07T22:30:26.609Z,96.92
2022-11-07T22:35:26.534Z,96.62
2022-11-07T22:40:26.476Z,96.31
2022-11-07T22:45:26.665Z,96.42
2022-11-07T22:50:26.385Z,96.11
2022-11-07T22:55:26.269Z,96.46
2022-11-07T23:00:26.230Z,96.26
2022-11-07T23:05:26.174Z,96.77
2022-11-07T23:10:26.098Z,96.92
2022-11-07T23:15:26.169Z,97.22
2022-11-07T23:20:25.961Z,97.22
2022-11-07T23:25:25.891Z,97.37
2022-11-07T23:30:25.824Z,97.88
2022-11-07T23:35:25.753Z,98.14
2022-11-07T23:40:25.684Z,97.94
2022-11-07T23:45:25.614Z,97.58
2022-11-07T23:50:25.576Z,97.28
2022-11-07T23:55:25.495Z,97.28
